sensor_id;sensor_type;location;lat;lon;timestamp;temperature;humidity
10419;DHT22;5256;48.728;9.140;2023-07-31T00:02:20;13.00;99.90
10419;DHT22;5256;48.728;9.140;2023-07-31T00:04:46;12.90;99.90
10419;DHT22;5256;48.728;9.140;2023-07-31T00:07:11;12.90;99.90
10419;DHT22;5256;48.728;9.140;2023-07-31T00:09:37;12.90;99.90
10419;DHT22;5256;48.728;9.140;2023-07-31T00:12:03;12.80;99.90
10419;DHT22;5256;48.728;9.140;2023-07-31T00:14:28;12.80;99.90
10419;DHT22;5256;48.728;9.140;2023-07-31T00:16:54;12.80;99.90
10419;DHT22;5256;48.728;9.140;2023-07-31T00:19:19;12.70;99.90
10419;DHT22;5256;48.728;9.140;2023-07-31T00:21:45;12.80;99.90
10419;DHT22;5256;48.728;9.140;2023-07-31T00:24:10;12.70;99.90
10419;DHT22;5256;48.728;9.140;2023-07-31T00:26:36;12.70;99.90
10419;DHT22;5256;48.728;9.140;2023-07-31T00:29:02;12.70;99.90
10419;DHT22;5256;48.728;9.140;2023-07-31T00:31:27;12.70;99.90
10419;DHT22;5256;48.728;9.140;2023-07-31T00:33:53;12.70;99.90
10419;DHT22;5256;48.728;9.140;2023-07-31T00:36:18;12.60;99.90
10419;DHT22;5256;48.728;9.140;2023-07-31T00:38:44;12.70;99.90
10419;DHT22;5256;48.728;9.140;2023-07-31T00:41:09;12.60;99.90
10419;DHT22;5256;48.728;9.140;2023-07-31T00:43:35;12.50;99.90
10419;DHT22;5256;48.728;9.140;2023-07-31T00:46:00;12.50;99.90
10419;DHT22;5256;48.728;9.140;2023-07-31T00:48:26;12.40;99.90
10419;DHT22;5256;48.728;9.140;2023-07-31T00:50:52;12.40;99.90
10419;DHT22;5256;48.728;9.140;2023-07-31T00:53:18;12.40;99.90
10419;DHT22;5256;48.728;9.140;2023-07-31T00:55:44;12.40;99.90
10419;DHT22;5256;48.728;9.140;2023-07-31T00:58:10;12.30;99.90
10419;DHT22;5256;48.728;9.140;2023-07-31T01:00:36;12.30;99.90
10419;DHT22;5256;48.728;9.140;2023-07-31T01:03:01;12.20;99.90
10419;DHT22;5256;48.728;9.140;2023-07-31T01:05:53;12.40;99.90
10419;DHT22;5256;48.728;9.140;2023-07-31T01:08:41;12.50;99.90
10419;DHT22;5256;48.728;9.140;2023-07-31T01:11:38;12.70;99.90
10419;DHT22;5256;48.728;9.140;2023-07-31T01:14:07;13.00;99.90
10419;DHT22;5256;48.728;9.140;2023-07-31T01:16:33;13.10;99.90
10419;DHT22;5256;48.728;9.140;2023-07-31T01:18:58;13.20;99.90
10419;DHT22;5256;48.728;9.140;2023-07-31T01:24:28;13.50;99.90
10419;DHT22;5256;48.728;9.140;2023-07-31T01:27:08;13.40;99.90
10419;DHT22;5256;48.728;9.140;2023-07-31T01:29:46;13.30;99.90
10419;DHT22;5256;48.728;9.140;2023-07-31T01:32:13;13.40;99.90
10419;DHT22;5256;48.728;9.140;2023-07-31T01:34:41;13.40;99.90
10419;DHT22;5256;48.728;9.140;2023-07-31T01:37:07;13.30;99.90
10419;DHT22;5256;48.728;9.140;2023-07-31T01:39:32;13.30;99.90
10419;DHT22;5256;48.728;9.140;2023-07-31T01:41:58;13.30;99.90
10419;DHT22;5256;48.728;9.140;2023-07-31T01:44:23;13.20;99.90
10419;DHT22;5256;48.728;9.140;2023-07-31T01:46:49;13.30;99.90
10419;DHT22;5256;48.728;9.140;2023-07-31T01:49:14;13.30;99.90
10419;DHT22;5256;48.728;9.140;2023-07-31T01:51:40;13.40;99.90
10419;DHT22;5256;48.728;9.140;2023-07-31T01:54:05;13.40;99.90
10419;DHT22;5256;48.728;9.140;2023-07-31T01:56:31;13.40;99.90
10419;DHT22;5256;48.728;9.140;2023-07-31T01:58:57;13.20;99.90
10419;DHT22;5256;48.728;9.140;2023-07-31T02:01:22;13.10;99.90
10419;DHT22;5256;48.728;9.140;2023-07-31T02:03:48;13.00;99.90
10419;DHT22;5256;48.728;9.140;2023-07-31T02:06:14;12.90;99.90
10419;DHT22;5256;48.728;9.140;2023-07-31T02:08:39;12.80;99.90
10419;DHT22;5256;48.728;9.140;2023-07-31T02:11:05;12.80;99.90
10419;DHT22;5256;48.728;9.140;2023-07-31T02:13:31;12.70;99.90
10419;DHT22;5256;48.728;9.140;2023-07-31T02:15:56;12.80;99.90
10419;DHT22;5256;48.728;9.140;2023-07-31T02:18:22;12.80;99.90
10419;DHT22;5256;48.728;9.140;2023-07-31T02:20:51;12.90;99.90
10419;DHT22;5256;48.728;9.140;2023-07-31T02:23:18;12.80;99.90
10419;DHT22;5256;48.728;9.140;2023-07-31T02:25:46;12.80;99.90
10419;DHT22;5256;48.728;9.140;2023-07-31T02:28:12;12.70;99.90
10419;DHT22;5256;48.728;9.140;2023-07-31T02:30:38;12.70;99.90
10419;DHT22;5256;48.728;9.140;2023-07-31T02:33:04;12.70;99.90
10419;DHT22;5256;48.728;9.140;2023-07-31T02:35:30;12.60;99.90
10419;DHT22;5256;48.728;9.140;2023-07-31T02:37:55;12.50;99.90
10419;DHT22;5256;48.728;9.140;2023-07-31T02:40:21;12.50;99.90
10419;DHT22;5256;48.728;9.140;2023-07-31T02:42:46;12.50;99.90
10419;DHT22;5256;48.728;9.140;2023-07-31T02:45:12;12.40;99.90
10419;DHT22;5256;48.728;9.140;2023-07-31T02:47:38;12.30;99.90
10419;DHT22;5256;48.728;9.140;2023-07-31T02:50:04;12.20;99.90
10419;DHT22;5256;48.728;9.140;2023-07-31T02:52:30;12.20;99.90
10419;DHT22;5256;48.728;9.140;2023-07-31T02:54:55;12.10;99.90
10419;DHT22;5256;48.728;9.140;2023-07-31T02:57:21;12.10;99.90
10419;DHT22;5256;48.728;9.140;2023-07-31T02:59:47;12.10;99.90
10419;DHT22;5256;48.728;9.140;2023-07-31T03:02:12;12.00;99.90
10419;DHT22;5256;48.728;9.140;2023-07-31T03:04:38;11.90;99.90
10419;DHT22;5256;48.728;9.140;2023-07-31T03:07:04;11.90;99.90
10419;DHT22;5256;48.728;9.140;2023-07-31T03:09:30;11.80;99.90
10419;DHT22;5256;48.728;9.140;2023-07-31T03:11:55;11.80;99.90
10419;DHT22;5256;48.728;9.140;2023-07-31T03:14:21;11.70;99.90
10419;DHT22;5256;48.728;9.140;2023-07-31T03:16:47;11.70;99.90
10419;DHT22;5256;48.728;9.140;2023-07-31T03:19:13;11.70;99.90
10419;DHT22;5256;48.728;9.140;2023-07-31T03:21:38;11.70;99.90
10419;DHT22;5256;48.728;9.140;2023-07-31T03:24:04;11.70;99.90
10419;DHT22;5256;48.728;9.140;2023-07-31T03:26:31;11.70;99.90
10419;DHT22;5256;48.728;9.140;2023-07-31T03:28:57;11.80;99.90
10419;DHT22;5256;48.728;9.140;2023-07-31T03:31:22;11.80;99.90
10419;DHT22;5256;48.728;9.140;2023-07-31T03:33:48;11.80;99.90
10419;DHT22;5256;48.728;9.140;2023-07-31T03:36:13;11.80;99.90
10419;DHT22;5256;48.728;9.140;2023-07-31T03:38:39;11.80;99.90
10419;DHT22;5256;48.728;9.140;2023-07-31T03:41:04;11.90;99.90
10419;DHT22;5256;48.728;9.140;2023-07-31T03:43:31;11.80;99.90
10419;DHT22;5256;48.728;9.140;2023-07-31T03:45:59;12.00;99.90
10419;DHT22;5256;48.728;9.140;2023-07-31T03:48:25;12.00;99.90
10419;DHT22;5256;48.728;9.140;2023-07-31T03:50:50;12.00;99.90
10419;DHT22;5256;48.728;9.140;2023-07-31T03:53:16;12.20;99.90
10419;DHT22;5256;48.728;9.140;2023-07-31T03:55:41;12.20;99.90
10419;DHT22;5256;48.728;9.140;2023-07-31T03:58:07;12.30;99.90
10419;DHT22;5256;48.728;9.140;2023-07-31T04:00:33;12.40;99.90
10419;DHT22;5256;48.728;9.140;2023-07-31T04:02:58;12.50;99.90
10419;DHT22;5256;48.728;9.140;2023-07-31T04:05:24;12.70;99.90
10419;DHT22;5256;48.728;9.140;2023-07-31T04:07:49;12.90;99.90
10419;DHT22;5256;48.728;9.140;2023-07-31T04:10:15;13.10;99.90
10419;DHT22;5256;48.728;9.140;2023-07-31T04:12:40;13.30;99.90
10419;DHT22;5256;48.728;9.140;2023-07-31T04:15:06;13.50;99.90
10419;DHT22;5256;48.728;9.140;2023-07-31T04:17:32;13.60;99.90
10419;DHT22;5256;48.728;9.140;2023-07-31T04:19:58;13.70;99.90
10419;DHT22;5256;48.728;9.140;2023-07-31T04:22:23;13.90;99.90
10419;DHT22;5256;48.728;9.140;2023-07-31T04:24:49;14.00;99.90
10419;DHT22;5256;48.728;9.140;2023-07-31T04:27:14;14.00;99.90
10419;DHT22;5256;48.728;9.140;2023-07-31T04:29:40;14.00;99.90
10419;DHT22;5256;48.728;9.140;2023-07-31T04:32:07;14.00;99.90
10419;DHT22;5256;48.728;9.140;2023-07-31T04:34:33;14.00;99.90
10419;DHT22;5256;48.728;9.140;2023-07-31T04:36:59;14.00;99.90
10419;DHT22;5256;48.728;9.140;2023-07-31T04:39:24;14.10;99.90
10419;DHT22;5256;48.728;9.140;2023-07-31T04:41:50;14.30;99.90
10419;DHT22;5256;48.728;9.140;2023-07-31T04:44:15;14.30;99.90
10419;DHT22;5256;48.728;9.140;2023-07-31T04:46:41;14.50;99.90
10419;DHT22;5256;48.728;9.140;2023-07-31T04:49:06;14.60;99.90
10419;DHT22;5256;48.728;9.140;2023-07-31T04:51:32;14.60;99.90
10419;DHT22;5256;48.728;9.140;2023-07-31T04:53:57;14.70;99.90
10419;DHT22;5256;48.728;9.140;2023-07-31T04:56:23;14.70;99.90
10419;DHT22;5256;48.728;9.140;2023-07-31T04:58:48;14.80;99.90
10419;DHT22;5256;48.728;9.140;2023-07-31T05:01:14;15.00;99.90
10419;DHT22;5256;48.728;9.140;2023-07-31T05:03:40;15.00;99.90
10419;DHT22;5256;48.728;9.140;2023-07-31T05:06:05;15.00;99.90
10419;DHT22;5256;48.728;9.140;2023-07-31T05:08:31;15.00;99.90
10419;DHT22;5256;48.728;9.140;2023-07-31T05:10:56;14.90;99.90
10419;DHT22;5256;48.728;9.140;2023-07-31T05:13:22;14.90;99.90
10419;DHT22;5256;48.728;9.140;2023-07-31T05:15:47;14.90;99.90
10419;DHT22;5256;48.728;9.140;2023-07-31T05:18:15;14.90;99.90
10419;DHT22;5256;48.728;9.140;2023-07-31T05:20:40;15.00;99.90
10419;DHT22;5256;48.728;9.140;2023-07-31T05:23:06;15.00;99.90
10419;DHT22;5256;48.728;9.140;2023-07-31T05:25:32;15.20;99.90
10419;DHT22;5256;48.728;9.140;2023-07-31T05:27:58;15.30;99.90
10419;DHT22;5256;48.728;9.140;2023-07-31T05:30:23;15.40;99.90
10419;DHT22;5256;48.728;9.140;2023-07-31T05:32:49;15.60;99.90
10419;DHT22;5256;48.728;9.140;2023-07-31T05:35:14;15.80;99.90
10419;DHT22;5256;48.728;9.140;2023-07-31T05:37:40;16.10;99.90
10419;DHT22;5256;48.728;9.140;2023-07-31T05:40:06;16.30;99.90
10419;DHT22;5256;48.728;9.140;2023-07-31T05:42:32;16.50;99.90
10419;DHT22;5256;48.728;9.140;2023-07-31T05:44:57;16.90;99.90
10419;DHT22;5256;48.728;9.140;2023-07-31T05:47:23;17.20;99.90
10419;DHT22;5256;48.728;9.140;2023-07-31T05:49:49;17.40;99.90
10419;DHT22;5256;48.728;9.140;2023-07-31T05:52:15;17.70;99.90
10419;DHT22;5256;48.728;9.140;2023-07-31T05:54:41;18.10;99.90
10419;DHT22;5256;48.728;9.140;2023-07-31T05:57:07;18.10;99.90
10419;DHT22;5256;48.728;9.140;2023-07-31T05:59:33;18.00;99.90
10419;DHT22;5256;48.728;9.140;2023-07-31T06:01:59;18.10;99.90
10419;DHT22;5256;48.728;9.140;2023-07-31T06:04:25;18.20;99.90
10419;DHT22;5256;48.728;9.140;2023-07-31T06:06:51;18.40;99.90
10419;DHT22;5256;48.728;9.140;2023-07-31T06:09:17;18.50;99.90
10419;DHT22;5256;48.728;9.140;2023-07-31T06:11:42;18.90;99.90
10419;DHT22;5256;48.728;9.140;2023-07-31T06:14:08;19.10;99.90
10419;DHT22;5256;48.728;9.140;2023-07-31T06:16:33;19.20;99.90
10419;DHT22;5256;48.728;9.140;2023-07-31T06:18:59;19.20;99.90
10419;DHT22;5256;48.728;9.140;2023-07-31T06:21:24;19.10;99.90
10419;DHT22;5256;48.728;9.140;2023-07-31T06:23:50;19.00;99.90
10419;DHT22;5256;48.728;9.140;2023-07-31T06:26:15;18.70;99.90
10419;DHT22;5256;48.728;9.140;2023-07-31T06:28:41;18.40;99.90
10419;DHT22;5256;48.728;9.140;2023-07-31T06:31:07;18.20;99.90
10419;DHT22;5256;48.728;9.140;2023-07-31T06:33:32;18.20;99.90
10419;DHT22;5256;48.728;9.140;2023-07-31T06:35:58;18.30;99.90
10419;DHT22;5256;48.728;9.140;2023-07-31T06:38:25;18.30;99.90
10419;DHT22;5256;48.728;9.140;2023-07-31T06:40:51;18.40;99.90
10419;DHT22;5256;48.728;9.140;2023-07-31T06:43:17;18.50;99.90
10419;DHT22;5256;48.728;9.140;2023-07-31T06:45:42;18.50;99.90
10419;DHT22;5256;48.728;9.140;2023-07-31T06:48:08;18.60;99.90
10419;DHT22;5256;48.728;9.140;2023-07-31T06:50:33;18.70;99.90
10419;DHT22;5256;48.728;9.140;2023-07-31T06:52:59;18.80;99.90
10419;DHT22;5256;48.728;9.140;2023-07-31T06:55:25;19.20;99.90
10419;DHT22;5256;48.728;9.140;2023-07-31T06:57:53;19.80;99.90
10419;DHT22;5256;48.728;9.140;2023-07-31T07:00:19;20.00;99.90
10419;DHT22;5256;48.728;9.140;2023-07-31T07:02:45;19.70;99.90
10419;DHT22;5256;48.728;9.140;2023-07-31T07:05:13;19.40;99.90
10419;DHT22;5256;48.728;9.140;2023-07-31T07:07:39;19.30;99.90
10419;DHT22;5256;48.728;9.140;2023-07-31T07:10:05;19.30;99.90
10419;DHT22;5256;48.728;9.140;2023-07-31T07:12:32;19.70;99.90
10419;DHT22;5256;48.728;9.140;2023-07-31T07:15:01;20.00;99.90
10419;DHT22;5256;48.728;9.140;2023-07-31T07:17:30;20.30;99.90
10419;DHT22;5256;48.728;9.140;2023-07-31T07:19:59;20.60;99.90
10419;DHT22;5256;48.728;9.140;2023-07-31T07:22:25;21.30;99.90
10419;DHT22;5256;48.728;9.140;2023-07-31T07:24:52;21.70;99.90
10419;DHT22;5256;48.728;9.140;2023-07-31T07:27:17;22.00;99.90
10419;DHT22;5256;48.728;9.140;2023-07-31T07:29:43;22.30;99.90
10419;DHT22;5256;48.728;9.140;2023-07-31T07:32:08;22.20;99.90
10419;DHT22;5256;48.728;9.140;2023-07-31T07:34:34;21.60;99.90
10419;DHT22;5256;48.728;9.140;2023-07-31T07:36:59;21.10;99.90
10419;DHT22;5256;48.728;9.140;2023-07-31T07:39:25;20.70;99.90
10419;DHT22;5256;48.728;9.140;2023-07-31T07:41:50;20.30;99.90
10419;DHT22;5256;48.728;9.140;2023-07-31T07:44:16;20.10;99.90
10419;DHT22;5256;48.728;9.140;2023-07-31T07:46:42;20.20;99.90
10419;DHT22;5256;48.728;9.140;2023-07-31T07:49:07;20.20;99.90
10419;DHT22;5256;48.728;9.140;2023-07-31T07:51:33;20.40;99.90
10419;DHT22;5256;48.728;9.140;2023-07-31T07:53:59;20.80;99.90
10419;DHT22;5256;48.728;9.140;2023-07-31T07:56:26;21.10;99.90
10419;DHT22;5256;48.728;9.140;2023-07-31T07:58:52;22.00;99.90
10419;DHT22;5256;48.728;9.140;2023-07-31T08:01:18;22.80;99.90
10419;DHT22;5256;48.728;9.140;2023-07-31T08:03:43;23.30;99.90
10419;DHT22;5256;48.728;9.140;2023-07-31T08:06:10;23.30;99.90
10419;DHT22;5256;48.728;9.140;2023-07-31T08:08:36;23.50;99.90
10419;DHT22;5256;48.728;9.140;2023-07-31T08:11:01;23.20;99.90
10419;DHT22;5256;48.728;9.140;2023-07-31T08:13:27;23.10;99.90
10419;DHT22;5256;48.728;9.140;2023-07-31T08:15:53;22.90;99.90
10419;DHT22;5256;48.728;9.140;2023-07-31T08:18:18;22.90;99.90
10419;DHT22;5256;48.728;9.140;2023-07-31T08:20:44;23.20;99.90
10419;DHT22;5256;48.728;9.140;2023-07-31T08:23:10;23.10;99.90
10419;DHT22;5256;48.728;9.140;2023-07-31T08:25:36;23.00;99.90
10419;DHT22;5256;48.728;9.140;2023-07-31T08:28:03;22.90;99.90
10419;DHT22;5256;48.728;9.140;2023-07-31T08:30:28;23.00;99.90
10419;DHT22;5256;48.728;9.140;2023-07-31T08:32:54;23.20;99.90
10419;DHT22;5256;48.728;9.140;2023-07-31T08:35:19;23.60;99.90
10419;DHT22;5256;48.728;9.140;2023-07-31T08:37:45;23.80;99.90
10419;DHT22;5256;48.728;9.140;2023-07-31T08:40:11;23.50;99.90
10419;DHT22;5256;48.728;9.140;2023-07-31T08:42:46;23.60;99.90
10419;DHT22;5256;48.728;9.140;2023-07-31T08:45:17;23.00;99.90
10419;DHT22;5256;48.728;9.140;2023-07-31T08:47:45;22.90;99.90
10419;DHT22;5256;48.728;9.140;2023-07-31T08:50:13;23.00;99.90
10419;DHT22;5256;48.728;9.140;2023-07-31T08:52:38;23.10;99.90
10419;DHT22;5256;48.728;9.140;2023-07-31T08:55:05;23.20;99.90
10419;DHT22;5256;48.728;9.140;2023-07-31T08:57:31;22.90;99.90
10419;DHT22;5256;48.728;9.140;2023-07-31T08:59:58;22.90;99.90
10419;DHT22;5256;48.728;9.140;2023-07-31T09:02:27;23.00;99.90
10419;DHT22;5256;48.728;9.140;2023-07-31T09:04:55;23.00;99.90
10419;DHT22;5256;48.728;9.140;2023-07-31T09:07:21;23.30;99.90
10419;DHT22;5256;48.728;9.140;2023-07-31T09:09:47;22.90;99.90
10419;DHT22;5256;48.728;9.140;2023-07-31T09:12:13;23.00;99.90
10419;DHT22;5256;48.728;9.140;2023-07-31T09:14:39;23.00;99.90
10419;DHT22;5256;48.728;9.140;2023-07-31T09:17:05;23.10;99.90
10419;DHT22;5256;48.728;9.140;2023-07-31T09:19:35;23.00;99.90
10419;DHT22;5256;48.728;9.140;2023-07-31T09:22:05;22.80;99.90
10419;DHT22;5256;48.728;9.140;2023-07-31T09:24:32;22.50;99.90
10419;DHT22;5256;48.728;9.140;2023-07-31T09:26:59;22.10;99.90
10419;DHT22;5256;48.728;9.140;2023-07-31T09:29:27;21.90;99.90
10419;DHT22;5256;48.728;9.140;2023-07-31T09:31:53;21.70;99.90
10419;DHT22;5256;48.728;9.140;2023-07-31T09:34:20;21.70;99.90
10419;DHT22;5256;48.728;9.140;2023-07-31T09:36:50;21.50;99.90
10419;DHT22;5256;48.728;9.140;2023-07-31T09:39:16;21.50;99.90
10419;DHT22;5256;48.728;9.140;2023-07-31T09:41:44;21.30;99.90
10419;DHT22;5256;48.728;9.140;2023-07-31T09:44:11;21.30;99.90
10419;DHT22;5256;48.728;9.140;2023-07-31T09:46:36;21.30;99.90
10419;DHT22;5256;48.728;9.140;2023-07-31T09:49:10;21.30;99.90
10419;DHT22;5256;48.728;9.140;2023-07-31T09:51:40;21.30;99.90
10419;DHT22;5256;48.728;9.140;2023-07-31T09:54:13;21.60;99.90
10419;DHT22;5256;48.728;9.140;2023-07-31T09:56:49;22.00;99.90
10419;DHT22;5256;48.728;9.140;2023-07-31T09:59:17;22.70;99.90
10419;DHT22;5256;48.728;9.140;2023-07-31T10:01:44;22.70;99.90
10419;DHT22;5256;48.728;9.140;2023-07-31T10:04:12;22.30;99.90
10419;DHT22;5256;48.728;9.140;2023-07-31T10:06:40;22.20;99.90
10419;DHT22;5256;48.728;9.140;2023-07-31T10:09:08;22.10;99.90
10419;DHT22;5256;48.728;9.140;2023-07-31T10:11:38;22.20;99.90
10419;DHT22;5256;48.728;9.140;2023-07-31T10:14:05;22.30;99.90
10419;DHT22;5256;48.728;9.140;2023-07-31T10:16:32;22.60;99.90
10419;DHT22;5256;48.728;9.140;2023-07-31T10:18:59;23.40;99.90
10419;DHT22;5256;48.728;9.140;2023-07-31T10:21:25;24.10;99.90
10419;DHT22;5256;48.728;9.140;2023-07-31T10:23:51;24.30;99.90
10419;DHT22;5256;48.728;9.140;2023-07-31T10:26:19;24.20;99.90
10419;DHT22;5256;48.728;9.140;2023-07-31T10:28:46;23.90;99.90
10419;DHT22;5256;48.728;9.140;2023-07-31T10:31:12;23.50;99.90
10419;DHT22;5256;48.728;9.140;2023-07-31T10:33:39;23.30;99.90
10419;DHT22;5256;48.728;9.140;2023-07-31T10:36:18;23.90;99.90
10419;DHT22;5256;48.728;9.140;2023-07-31T10:38:44;24.30;99.90
10419;DHT22;5256;48.728;9.140;2023-07-31T10:41:10;24.60;99.90
10419;DHT22;5256;48.728;9.140;2023-07-31T10:43:37;24.80;99.90
10419;DHT22;5256;48.728;9.140;2023-07-31T10:46:12;24.10;99.90
10419;DHT22;5256;48.728;9.140;2023-07-31T10:48:40;23.80;99.90
10419;DHT22;5256;48.728;9.140;2023-07-31T10:51:10;23.50;99.90
10419;DHT22;5256;48.728;9.140;2023-07-31T10:53:37;23.50;99.90
10419;DHT22;5256;48.728;9.140;2023-07-31T10:56:08;22.90;99.90
10419;DHT22;5256;48.728;9.140;2023-07-31T10:58:36;22.90;99.90
10419;DHT22;5256;48.728;9.140;2023-07-31T11:01:03;23.00;99.90
10419;DHT22;5256;48.728;9.140;2023-07-31T11:03:49;22.90;99.90
10419;DHT22;5256;48.728;9.140;2023-07-31T11:06:17;22.60;99.90
10419;DHT22;5256;48.728;9.140;2023-07-31T11:08:48;22.40;99.90
10419;DHT22;5256;48.728;9.140;2023-07-31T11:11:17;22.30;99.90
10419;DHT22;5256;48.728;9.140;2023-07-31T11:13:44;22.40;99.90
10419;DHT22;5256;48.728;9.140;2023-07-31T11:16:12;22.60;99.90
10419;DHT22;5256;48.728;9.140;2023-07-31T11:18:48;22.80;99.90
10419;DHT22;5256;48.728;9.140;2023-07-31T11:21:15;22.80;99.90
10419;DHT22;5256;48.728;9.140;2023-07-31T11:23:45;23.00;99.90
10419;DHT22;5256;48.728;9.140;2023-07-31T11:26:10;23.30;99.90
10419;DHT22;5256;48.728;9.140;2023-07-31T11:28:36;23.30;99.90
10419;DHT22;5256;48.728;9.140;2023-07-31T11:31:02;23.10;99.90
10419;DHT22;5256;48.728;9.140;2023-07-31T11:33:28;23.10;99.90
10419;DHT22;5256;48.728;9.140;2023-07-31T11:35:54;22.70;99.90
10419;DHT22;5256;48.728;9.140;2023-07-31T11:38:25;22.50;99.90
10419;DHT22;5256;48.728;9.140;2023-07-31T11:40:55;22.50;99.90
10419;DHT22;5256;48.728;9.140;2023-07-31T11:43:21;22.60;99.90
10419;DHT22;5256;48.728;9.140;2023-07-31T11:45:52;22.90;99.90
10419;DHT22;5256;48.728;9.140;2023-07-31T11:48:28;23.00;99.90
10419;DHT22;5256;48.728;9.140;2023-07-31T11:50:57;23.10;99.90
10419;DHT22;5256;48.728;9.140;2023-07-31T11:53:38;23.20;99.90
10419;DHT22;5256;48.728;9.140;2023-07-31T11:56:06;23.20;99.90
10419;DHT22;5256;48.728;9.140;2023-07-31T11:58:34;23.10;99.90
10419;DHT22;5256;48.728;9.140;2023-07-31T12:01:01;23.10;99.90
10419;DHT22;5256;48.728;9.140;2023-07-31T12:03:27;23.10;99.90
10419;DHT22;5256;48.728;9.140;2023-07-31T12:05:53;23.10;99.90
10419;DHT22;5256;48.728;9.140;2023-07-31T12:08:21;23.10;99.90
10419;DHT22;5256;48.728;9.140;2023-07-31T12:10:50;23.30;99.90
10419;DHT22;5256;48.728;9.140;2023-07-31T12:13:26;23.40;99.90
10419;DHT22;5256;48.728;9.140;2023-07-31T12:15:56;23.50;99.90
10419;DHT22;5256;48.728;9.140;2023-07-31T12:18:23;23.50;99.90
10419;DHT22;5256;48.728;9.140;2023-07-31T12:20:54;23.60;99.90
10419;DHT22;5256;48.728;9.140;2023-07-31T12:23:21;23.40;99.90
10419;DHT22;5256;48.728;9.140;2023-07-31T12:26:12;23.30;99.90
10419;DHT22;5256;48.728;9.140;2023-07-31T12:28:41;23.10;99.90
10419;DHT22;5256;48.728;9.140;2023-07-31T12:31:10;23.00;99.90
10419;DHT22;5256;48.728;9.140;2023-07-31T12:33:37;23.00;99.90
10419;DHT22;5256;48.728;9.140;2023-07-31T12:36:13;22.70;99.90
10419;DHT22;5256;48.728;9.140;2023-07-31T12:38:40;22.50;99.90
10419;DHT22;5256;48.728;9.140;2023-07-31T12:41:05;22.40;99.90
10419;DHT22;5256;48.728;9.140;2023-07-31T12:43:35;22.30;99.90
10419;DHT22;5256;48.728;9.140;2023-07-31T12:46:00;22.40;99.90
10419;DHT22;5256;48.728;9.140;2023-07-31T12:48:26;22.30;99.90
10419;DHT22;5256;48.728;9.140;2023-07-31T12:50:51;22.20;99.90
10419;DHT22;5256;48.728;9.140;2023-07-31T12:53:17;22.10;99.90
10419;DHT22;5256;48.728;9.140;2023-07-31T12:55:42;22.10;99.90
10419;DHT22;5256;48.728;9.140;2023-07-31T12:58:08;22.10;99.90
10419;DHT22;5256;48.728;9.140;2023-07-31T13:00:34;22.40;99.90
10419;DHT22;5256;48.728;9.140;2023-07-31T13:03:01;22.80;99.90
10419;DHT22;5256;48.728;9.140;2023-07-31T13:05:28;23.30;99.90
10419;DHT22;5256;48.728;9.140;2023-07-31T13:07:53;23.60;99.90
10419;DHT22;5256;48.728;9.140;2023-07-31T13:10:19;23.80;99.90
10419;DHT22;5256;48.728;9.140;2023-07-31T13:12:45;24.00;99.90
10419;DHT22;5256;48.728;9.140;2023-07-31T13:15:10;24.20;99.90
10419;DHT22;5256;48.728;9.140;2023-07-31T13:17:36;24.80;99.90
10419;DHT22;5256;48.728;9.140;2023-07-31T13:20:02;25.00;99.90
10419;DHT22;5256;48.728;9.140;2023-07-31T13:22:28;25.30;99.90
10419;DHT22;5256;48.728;9.140;2023-07-31T13:24:54;25.20;99.90
10419;DHT22;5256;48.728;9.140;2023-07-31T13:27:20;25.10;99.90
10419;DHT22;5256;48.728;9.140;2023-07-31T13:29:51;24.80;99.90
10419;DHT22;5256;48.728;9.140;2023-07-31T13:32:18;24.80;99.90
10419;DHT22;5256;48.728;9.140;2023-07-31T13:34:45;24.80;99.90
10419;DHT22;5256;48.728;9.140;2023-07-31T13:37:11;24.80;99.90
10419;DHT22;5256;48.728;9.140;2023-07-31T13:39:36;24.30;99.90
10419;DHT22;5256;48.728;9.140;2023-07-31T13:42:03;24.00;99.90
10419;DHT22;5256;48.728;9.140;2023-07-31T13:44:29;23.70;99.90
10419;DHT22;5256;48.728;9.140;2023-07-31T13:46:54;23.40;99.90
10419;DHT22;5256;48.728;9.140;2023-07-31T13:49:20;23.30;99.90
10419;DHT22;5256;48.728;9.140;2023-07-31T13:51:45;23.40;99.90
10419;DHT22;5256;48.728;9.140;2023-07-31T13:54:11;23.20;99.90
10419;DHT22;5256;48.728;9.140;2023-07-31T13:56:38;23.20;99.90
10419;DHT22;5256;48.728;9.140;2023-07-31T13:59:06;23.30;99.90
10419;DHT22;5256;48.728;9.140;2023-07-31T14:01:32;23.40;99.90
10419;DHT22;5256;48.728;9.140;2023-07-31T14:03:57;23.10;99.90
10419;DHT22;5256;48.728;9.140;2023-07-31T14:06:23;22.90;99.90
10419;DHT22;5256;48.728;9.140;2023-07-31T14:08:49;22.80;99.90
10419;DHT22;5256;48.728;9.140;2023-07-31T14:11:14;22.80;99.90
10419;DHT22;5256;48.728;9.140;2023-07-31T14:13:40;22.90;99.90
10419;DHT22;5256;48.728;9.140;2023-07-31T14:16:06;22.90;99.90
10419;DHT22;5256;48.728;9.140;2023-07-31T14:18:31;22.90;99.90
10419;DHT22;5256;48.728;9.140;2023-07-31T14:20:57;23.00;99.90
10419;DHT22;5256;48.728;9.140;2023-07-31T14:23:23;23.00;99.90
10419;DHT22;5256;48.728;9.140;2023-07-31T14:25:48;23.00;99.90
10419;DHT22;5256;48.728;9.140;2023-07-31T14:28:14;23.20;99.90
10419;DHT22;5256;48.728;9.140;2023-07-31T14:30:39;23.40;99.90
10419;DHT22;5256;48.728;9.140;2023-07-31T14:33:05;23.60;99.90
10419;DHT22;5256;48.728;9.140;2023-07-31T14:35:31;23.60;99.90
10419;DHT22;5256;48.728;9.140;2023-07-31T14:37:56;23.50;99.90
10419;DHT22;5256;48.728;9.140;2023-07-31T14:40:22;23.50;99.90
10419;DHT22;5256;48.728;9.140;2023-07-31T14:42:48;23.50;99.90
10419;DHT22;5256;48.728;9.140;2023-07-31T14:45:13;23.70;99.90
10419;DHT22;5256;48.728;9.140;2023-07-31T14:47:39;23.90;99.90
10419;DHT22;5256;48.728;9.140;2023-07-31T14:50:05;24.10;99.90
10419;DHT22;5256;48.728;9.140;2023-07-31T14:52:31;24.10;99.90
10419;DHT22;5256;48.728;9.140;2023-07-31T14:54:56;24.30;99.90
10419;DHT22;5256;48.728;9.140;2023-07-31T14:57:22;24.70;99.90
10419;DHT22;5256;48.728;9.140;2023-07-31T14:59:47;25.10;99.90
10419;DHT22;5256;48.728;9.140;2023-07-31T15:02:14;25.30;99.90
10419;DHT22;5256;48.728;9.140;2023-07-31T15:04:40;25.20;99.60
10419;DHT22;5256;48.728;9.140;2023-07-31T15:07:06;24.90;99.90
10419;DHT22;5256;48.728;9.140;2023-07-31T15:09:31;25.00;99.90
10419;DHT22;5256;48.728;9.140;2023-07-31T15:11:57;25.10;99.60
10419;DHT22;5256;48.728;9.140;2023-07-31T15:14:24;25.00;99.70
10419;DHT22;5256;48.728;9.140;2023-07-31T15:16:49;24.80;99.60
10419;DHT22;5256;48.728;9.140;2023-07-31T15:19:15;24.70;99.60
10419;DHT22;5256;48.728;9.140;2023-07-31T15:21:41;24.60;99.80
10419;DHT22;5256;48.728;9.140;2023-07-31T15:24:07;24.70;99.90
10419;DHT22;5256;48.728;9.140;2023-07-31T15:26:32;24.90;99.80
10419;DHT22;5256;48.728;9.140;2023-07-31T15:29:05;25.30;99.90
10419;DHT22;5256;48.728;9.140;2023-07-31T15:31:35;25.70;99.20
10419;DHT22;5256;48.728;9.140;2023-07-31T15:34:00;26.00;99.40
10419;DHT22;5256;48.728;9.140;2023-07-31T15:36:26;26.20;98.60
10419;DHT22;5256;48.728;9.140;2023-07-31T15:38:52;26.40;98.30
10419;DHT22;5256;48.728;9.140;2023-07-31T15:41:18;26.40;98.20
10419;DHT22;5256;48.728;9.140;2023-07-31T15:43:44;26.30;98.70
10419;DHT22;5256;48.728;9.140;2023-07-31T15:46:11;26.30;99.20